sensor_id;sensor_type;location;lat;lon;timestamp;pressure;altitude;pressure_sealevel;temperature;humidity
24280;BME280;12395;42.808;23.408;2023-04-01T00:01:18;94031.53;;;9.36;76.30
24280;BME280;12395;42.808;23.408;2023-04-01T00:03:44;94040.94;;;9.50;74.81
24280;BME280;12395;42.808;23.408;2023-04-01T00:06:13;94035.63;;;9.50;75.69
24280;BME280;12395;42.808;23.408;2023-04-01T00:08:38;94040.56;;;9.64;73.11
24280;BME280;12395;42.808;23.408;2023-04-01T00:11:04;94045.53;;;9.72;74.49
24280;BME280;12395;42.808;23.408;2023-04-01T00:13:30;94035.41;;;9.69;72.81
24280;BME280;12395;42.808;23.408;2023-04-01T00:15:55;94019.22;;;9.77;72.24
24280;BME280;12395;42.808;23.408;2023-04-01T00:18:21;94028.94;;;9.95;72.29
24280;BME280;12395;42.808;23.408;2023-04-01T00:20:48;94036.00;;;10.01;72.55
24280;BME280;12395;42.808;23.408;2023-04-01T00:23:14;94034.88;;;10.08;71.76
24280;BME280;12395;42.808;23.408;2023-04-01T00:25:40;94028.38;;;9.93;72.62
24280;BME280;12395;42.808;23.408;2023-04-01T00:28:06;94019.09;;;10.02;71.13
24280;BME280;12395;42.808;23.408;2023-04-01T00:30:31;94029.78;;;10.25;70.66
24280;BME280;12395;42.808;23.408;2023-04-01T00:32:57;94026.59;;;10.35;70.24
24280;BME280;12395;42.808;23.408;2023-04-01T00:35:22;94036.72;;;10.38;70.22
24280;BME280;12395;42.808;23.408;2023-04-01T00:37:48;94014.38;;;10.22;69.78
24280;BME280;12395;42.808;23.408;2023-04-01T00:40:25;94026.03;;;10.44;68.11
24280;BME280;12395;42.808;23.408;2023-04-01T00:42:51;94009.22;;;10.50;68.02
24280;BME280;12395;42.808;23.408;2023-04-01T00:45:44;94010.75;;;10.58;69.48
24280;BME280;12395;42.808;23.408;2023-04-01T00:48:20;94004.59;;;10.46;68.91
24280;BME280;12395;42.808;23.408;2023-04-01T00:51:09;93986.31;;;10.44;68.32
24280;BME280;12395;42.808;23.408;2023-04-01T00:53:40;93995.41;;;10.48;67.73
24280;BME280;12395;42.808;23.408;2023-04-01T00:58:51;93984.22;;;10.35;68.15
24280;BME280;12395;42.808;23.408;2023-04-01T01:01:17;93974.75;;;10.27;68.90
24280;BME280;12395;42.808;23.408;2023-04-01T01:03:42;93961.63;;;10.21;70.53
24280;BME280;12395;42.808;23.408;2023-04-01T01:14:28;93949.59;;;9.95;71.14
24280;BME280;12395;42.808;23.408;2023-04-01T01:36:11;93922.53;;;9.22;80.72
24280;BME280;12395;42.808;23.408;2023-04-01T01:38:39;93922.75;;;9.20;81.32
24280;BME280;12395;42.808;23.408;2023-04-01T01:41:07;93919.25;;;9.08;81.80
24280;BME280;12395;42.808;23.408;2023-04-01T01:43:37;93912.81;;;9.04;81.86
24280;BME280;12395;42.808;23.408;2023-04-01T01:46:16;93927.19;;;9.08;82.74
24280;BME280;12395;42.808;23.408;2023-04-01T01:48:43;93914.38;;;8.94;83.68
24280;BME280;12395;42.808;23.408;2023-04-01T01:51:10;93926.28;;;8.96;84.28
24280;BME280;12395;42.808;23.408;2023-04-01T01:53:36;93911.78;;;8.87;84.67
24280;BME280;12395;42.808;23.408;2023-04-01T01:56:02;93923.16;;;8.88;83.97
24280;BME280;12395;42.808;23.408;2023-04-01T01:58:32;93923.81;;;8.83;84.27
24280;BME280;12395;42.808;23.408;2023-04-01T02:01:04;93934.00;;;8.80;84.74
24280;BME280;12395;42.808;23.408;2023-04-01T02:03:34;93927.84;;;8.68;84.63
24280;BME280;12395;42.808;23.408;2023-04-01T02:06:03;93922.06;;;8.59;85.05
24280;BME280;12395;42.808;23.408;2023-04-01T02:08:36;93916.59;;;8.54;84.95
24280;BME280;12395;42.808;23.408;2023-04-01T02:11:09;93911.47;;;8.41;85.50
24280;BME280;12395;42.808;23.408;2023-04-01T02:16:14;93895.56;;;8.29;85.69
24280;BME280;12395;42.808;23.408;2023-04-01T02:18:41;93889.09;;;8.25;85.18
24280;BME280;12395;42.808;23.408;2023-04-01T02:21:08;93894.53;;;8.24;85.99
24280;BME280;12395;42.808;23.408;2023-04-01T02:23:35;93897.41;;;8.22;85.82
24280;BME280;12395;42.808;23.408;2023-04-01T02:26:05;93897.81;;;8.26;84.96
24280;BME280;12395;42.808;23.408;2023-04-01T02:28:33;93900.19;;;8.34;85.01
24280;BME280;12395;42.808;23.408;2023-04-01T02:30:59;93885.59;;;8.31;83.98
24280;BME280;12395;42.808;23.408;2023-04-01T02:33:27;93891.59;;;8.38;83.84
24280;BME280;12395;42.808;23.408;2023-04-01T02:35:53;93896.66;;;8.40;83.77
24280;BME280;12395;42.808;23.408;2023-04-01T02:38:18;93902.53;;;8.42;83.41
24280;BME280;12395;42.808;23.408;2023-04-01T02:40:57;93915.44;;;8.50;84.00
24280;BME280;12395;42.808;23.408;2023-04-01T02:43:23;93900.03;;;8.47;83.84
24280;BME280;12395;42.808;23.408;2023-04-01T02:45:48;93905.53;;;8.45;84.23
24280;BME280;12395;42.808;23.408;2023-04-01T02:48:13;93903.84;;;8.33;84.21
24280;BME280;12395;42.808;23.408;2023-04-01T02:50:39;93929.94;;;8.41;85.17
24280;BME280;12395;42.808;23.408;2023-04-01T02:53:05;93908.47;;;8.37;84.33
24280;BME280;12395;42.808;23.408;2023-04-01T02:55:32;93931.28;;;8.50;84.36
24280;BME280;12395;42.808;23.408;2023-04-01T02:57:58;93936.13;;;8.53;84.12
24280;BME280;12395;42.808;23.408;2023-04-01T03:00:24;93934.34;;;8.47;84.15
24280;BME280;12395;42.808;23.408;2023-04-01T03:02:49;93923.53;;;8.55;82.89
24280;BME280;12395;42.808;23.408;2023-04-01T03:05:15;93937.38;;;8.69;83.21
24280;BME280;12395;42.808;23.408;2023-04-01T03:07:41;93934.97;;;8.67;83.37
24280;BME280;12395;42.808;23.408;2023-04-01T03:10:07;93940.69;;;8.82;80.95
24280;BME280;12395;42.808;23.408;2023-04-01T03:12:32;93926.75;;;8.93;80.92
24280;BME280;12395;42.808;23.408;2023-04-01T03:14:58;93940.81;;;9.05;81.32
24280;BME280;12395;42.808;23.408;2023-04-01T03:17:23;93932.66;;;9.07;81.75
24280;BME280;12395;42.808;23.408;2023-04-01T03:19:49;93933.13;;;9.04;82.10
24280;BME280;12395;42.808;23.408;2023-04-01T03:22:14;93923.97;;;9.06;80.65
24280;BME280;12395;42.808;23.408;2023-04-01T03:24:39;93931.06;;;9.06;81.90
24280;BME280;12395;42.808;23.408;2023-04-01T03:27:05;93933.94;;;9.04;82.50
24280;BME280;12395;42.808;23.408;2023-04-01T03:29:30;93928.16;;;8.96;84.23
24280;BME280;12395;42.808;23.408;2023-04-01T03:31:56;93927.94;;;8.97;84.68
24280;BME280;12395;42.808;23.408;2023-04-01T03:34:23;93939.34;;;9.09;83.56
24280;BME280;12395;42.808;23.408;2023-04-01T03:36:49;93937.75;;;9.08;82.46
24280;BME280;12395;42.808;23.408;2023-04-01T03:39:14;93932.66;;;9.07;83.37
24280;BME280;12395;42.808;23.408;2023-04-01T03:41:44;93916.75;;;9.13;81.55
24280;BME280;12395;42.808;23.408;2023-04-01T03:44:11;93943.25;;;9.25;83.23
24280;BME280;12395;42.808;23.408;2023-04-01T03:46:36;93927.03;;;9.21;81.74
24280;BME280;12395;42.808;23.408;2023-04-01T03:49:02;93929.78;;;9.45;80.03
24280;BME280;12395;42.808;23.408;2023-04-01T03:51:27;93887.81;;;9.48;77.91
24280;BME280;12395;42.808;23.408;2023-04-01T03:53:53;93919.66;;;9.83;78.10
24280;BME280;12395;42.808;23.408;2023-04-01T03:56:18;93900.91;;;9.84;83.87
24280;BME280;12395;42.808;23.408;2023-04-01T03:58:44;93892.44;;;9.94;79.69
24280;BME280;12395;42.808;23.408;2023-04-01T04:01:21;93904.31;;;10.15;77.80
24280;BME280;12395;42.808;23.408;2023-04-01T04:03:47;93886.72;;;10.20;78.85
24280;BME280;12395;42.808;23.408;2023-04-01T04:06:14;93872.91;;;10.18;80.05
24280;BME280;12395;42.808;23.408;2023-04-01T04:08:40;93869.56;;;10.23;81.39
24280;BME280;12395;42.808;23.408;2023-04-01T04:11:05;93844.22;;;10.03;84.64
24280;BME280;12395;42.808;23.408;2023-04-01T04:13:31;93829.00;;;9.76;88.08
24280;BME280;12395;42.808;23.408;2023-04-01T04:15:56;93828.44;;;9.74;88.76
24280;BME280;12395;42.808;23.408;2023-04-01T04:18:22;93817.63;;;9.64;91.87
24280;BME280;12395;42.808;23.408;2023-04-01T04:20:47;93820.72;;;9.49;93.31
24280;BME280;12395;42.808;23.408;2023-04-01T04:23:15;93816.56;;;9.53;92.80
24280;BME280;12395;42.808;23.408;2023-04-01T04:25:41;93807.25;;;9.51;91.56
24280;BME280;12395;42.808;23.408;2023-04-01T04:28:06;93795.06;;;9.50;93.17
24280;BME280;12395;42.808;23.408;2023-04-01T04:30:32;93787.94;;;9.39;93.52
24280;BME280;12395;42.808;23.408;2023-04-01T04:32:57;93776.88;;;9.42;91.92
24280;BME280;12395;42.808;23.408;2023-04-01T04:35:22;93774.81;;;9.44;92.40
24280;BME280;12395;42.808;23.408;2023-04-01T04:37:48;93770.91;;;9.46;92.13
24280;BME280;12395;42.808;23.408;2023-04-01T04:40:13;93765.16;;;9.38;94.20
24280;BME280;12395;42.808;23.408;2023-04-01T04:42:38;93758.63;;;9.40;93.71
24280;BME280;12395;42.808;23.408;2023-04-01T04:45:04;93752.06;;;9.43;92.79
24280;BME280;12395;42.808;23.408;2023-04-01T04:47:31;93752.31;;;9.53;91.53
24280;BME280;12395;42.808;23.408;2023-04-01T04:49:56;93746.00;;;9.65;90.22
24280;BME280;12395;42.808;23.408;2023-04-01T04:52:21;93751.50;;;9.75;87.70
24280;BME280;12395;42.808;23.408;2023-04-01T04:54:47;93754.16;;;9.87;87.45
24280;BME280;12395;42.808;23.408;2023-04-01T04:57:12;93742.31;;;9.78;88.33
24280;BME280;12395;42.808;23.408;2023-04-01T04:59:37;93742.78;;;9.75;88.96
24280;BME280;12395;42.808;23.408;2023-04-01T05:02:03;93747.03;;;9.76;88.36
24280;BME280;12395;42.808;23.408;2023-04-01T05:04:28;93751.28;;;9.77;88.16
24280;BME280;12395;42.808;23.408;2023-04-01T05:06:53;93736.81;;;9.79;87.16
24280;BME280;12395;42.808;23.408;2023-04-01T05:09:19;93745.28;;;9.93;87.43
24280;BME280;12395;42.808;23.408;2023-04-01T05:11:44;93722.75;;;9.90;89.91
24280;BME280;12395;42.808;23.408;2023-04-01T05:14:15;93726.09;;;9.86;90.54
24280;BME280;12395;42.808;23.408;2023-04-01T05:16:40;93719.06;;;9.80;90.66
24280;BME280;12395;42.808;23.408;2023-04-01T05:19:06;93708.97;;;9.65;90.94
24280;BME280;12395;42.808;23.408;2023-04-01T05:21:31;93728.28;;;9.54;91.16
24280;BME280;12395;42.808;23.408;2023-04-01T05:23:57;93726.31;;;9.50;92.26
24280;BME280;12395;42.808;23.408;2023-04-01T05:26:22;93727.84;;;9.57;92.56
24280;BME280;12395;42.808;23.408;2023-04-01T05:28:47;93726.47;;;9.66;93.72
24280;BME280;12395;42.808;23.408;2023-04-01T05:31:13;93708.84;;;9.60;94.36
24280;BME280;12395;42.808;23.408;2023-04-01T05:33:38;93721.16;;;9.78;94.02
24280;BME280;12395;42.808;23.408;2023-04-01T05:36:09;93740.13;;;9.86;93.62
24280;BME280;12395;42.808;23.408;2023-04-01T05:38:35;93743.34;;;10.00;93.33
24280;BME280;12395;42.808;23.408;2023-04-01T05:41:01;93734.03;;;10.09;92.83
24280;BME280;12395;42.808;23.408;2023-04-01T05:43:27;93722.41;;;10.22;90.70
24280;BME280;12395;42.808;23.408;2023-04-01T05:45:53;93725.38;;;10.25;90.38
24280;BME280;12395;42.808;23.408;2023-04-01T05:48:18;93729.97;;;10.30;90.27
24280;BME280;12395;42.808;23.408;2023-04-01T05:50:43;93725.84;;;10.22;90.07
24280;BME280;12395;42.808;23.408;2023-04-01T05:53:09;93731.81;;;10.29;89.58
24280;BME280;12395;42.808;23.408;2023-04-01T05:55:35;93705.25;;;10.24;89.67
24280;BME280;12395;42.808;23.408;2023-04-01T05:58:01;93702.59;;;10.24;89.30
24280;BME280;12395;42.808;23.408;2023-04-01T06:00:26;93717.63;;;10.35;90.09
24280;BME280;12395;42.808;23.408;2023-04-01T06:02:51;93714.72;;;10.48;89.33
24280;BME280;12395;42.808;23.408;2023-04-01T06:05:23;93715.78;;;10.75;86.04
24280;BME280;12395;42.808;23.408;2023-04-01T06:07:51;93730.94;;;11.08;84.23
24280;BME280;12395;42.808;23.408;2023-04-01T06:10:21;93732.09;;;11.29;83.18
24280;BME280;12395;42.808;23.408;2023-04-01T06:13:21;93725.88;;;11.40;80.84
24280;BME280;12395;42.808;23.408;2023-04-01T06:28:59;93740.72;;;12.67;73.21
24280;BME280;12395;42.808;23.408;2023-04-01T06:31:44;93742.13;;;12.96;73.56
24280;BME280;12395;42.808;23.408;2023-04-01T06:34:41;93734.28;;;13.33;73.02
24280;BME280;12395;42.808;23.408;2023-04-01T06:50:48;93722.16;;;14.21;63.59
24280;BME280;12395;42.808;23.408;2023-04-01T06:56:07;93707.34;;;14.40;62.64
24280;BME280;12395;42.808;23.408;2023-04-01T06:58:35;93706.00;;;14.32;61.18
24280;BME280;12395;42.808;23.408;2023-04-01T07:01:07;93703.88;;;14.34;60.01
24280;BME280;12395;42.808;23.408;2023-04-01T07:03:36;93707.13;;;14.46;59.70
24280;BME280;12395;42.808;23.408;2023-04-01T07:06:09;93694.34;;;14.48;58.57
24280;BME280;12395;42.808;23.408;2023-04-01T07:08:38;93694.66;;;14.67;60.51
24280;BME280;12395;42.808;23.408;2023-04-01T07:11:08;93681.88;;;14.64;58.79
24280;BME280;12395;42.808;23.408;2023-04-01T07:13:44;93688.28;;;14.68;59.44
24280;BME280;12395;42.808;23.408;2023-04-01T07:16:18;93686.16;;;14.70;58.18
24280;BME280;12395;42.808;23.408;2023-04-01T07:18:49;93667.22;;;14.72;57.62
24280;BME280;12395;42.808;23.408;2023-04-01T07:21:23;93671.25;;;14.79;56.70
24280;BME280;12395;42.808;23.408;2023-04-01T07:23:51;93669.34;;;14.69;57.63
24280;BME280;12395;42.808;23.408;2023-04-01T07:26:24;93677.13;;;14.81;57.48
24280;BME280;12395;42.808;23.408;2023-04-01T07:28:51;93680.38;;;15.08;56.56
24280;BME280;12395;42.808;23.408;2023-04-01T07:31:33;93681.47;;;15.42;55.96
24280;BME280;12395;42.808;23.408;2023-04-01T07:34:25;93678.31;;;15.66;54.08
24280;BME280;12395;42.808;23.408;2023-04-01T07:37:01;93677.75;;;15.99;54.11
24280;BME280;12395;42.808;23.408;2023-04-01T07:42:31;93677.69;;;16.19;51.39
24280;BME280;12395;42.808;23.408;2023-04-01T07:47:41;93663.31;;;16.10;52.94
24280;BME280;12395;42.808;23.408;2023-04-01T07:50:26;93660.59;;;16.15;52.78
24280;BME280;12395;42.808;23.408;2023-04-01T07:53:33;93656.53;;;16.38;52.18
24280;BME280;12395;42.808;23.408;2023-04-01T07:56:10;93667.19;;;16.53;51.45
24280;BME280;12395;42.808;23.408;2023-04-01T07:59:02;93674.88;;;16.64;50.13
24280;BME280;12395;42.808;23.408;2023-04-01T08:10:36;93657.41;;;16.87;49.59
24280;BME280;12395;42.808;23.408;2023-04-01T08:21:34;93650.28;;;17.84;48.06
24280;BME280;12395;42.808;23.408;2023-04-01T08:24:22;93631.53;;;18.12;46.66
24280;BME280;12395;42.808;23.408;2023-04-01T08:26:54;93615.44;;;18.12;45.43
24280;BME280;12395;42.808;23.408;2023-04-01T08:29:27;93612.72;;;18.17;46.00
24280;BME280;12395;42.808;23.408;2023-04-01T08:32:03;93621.59;;;18.36;45.68
24280;BME280;12395;42.808;23.408;2023-04-01T08:34:40;93619.44;;;18.38;45.88
24280;BME280;12395;42.808;23.408;2023-04-01T08:37:11;93601.06;;;18.51;47.24
24280;BME280;12395;42.808;23.408;2023-04-01T08:39:44;93600.00;;;18.52;46.54
24280;BME280;12395;42.808;23.408;2023-04-01T08:45:02;93585.50;;;18.71;45.03
24280;BME280;12395;42.808;23.408;2023-04-01T08:53:14;93579.69;;;19.01;45.70
24280;BME280;12395;42.808;23.408;2023-04-01T08:58:53;93566.31;;;19.52;44.91
24280;BME280;12395;42.808;23.408;2023-04-01T09:18:02;93553.50;;;19.63;40.29
24280;BME280;12395;42.808;23.408;2023-04-01T09:20:57;93551.69;;;19.58;39.40
24280;BME280;12395;42.808;23.408;2023-04-01T09:23:58;93536.38;;;19.59;40.41
24280;BME280;12395;42.808;23.408;2023-04-01T09:44:01;93515.41;;;19.10;41.12
24280;BME280;12395;42.808;23.408;2023-04-01T09:51:55;93500.47;;;19.68;39.39
24280;BME280;12395;42.808;23.408;2023-04-01T09:54:56;93483.84;;;19.93;38.42
24280;BME280;12395;42.808;23.408;2023-04-01T10:16:24;93467.41;;;20.94;36.01
24280;BME280;12395;42.808;23.408;2023-04-01T10:27:34;93437.44;;;21.09;33.97
24280;BME280;12395;42.808;23.408;2023-04-01T10:44:09;93429.38;;;20.51;35.98
24280;BME280;12395;42.808;23.408;2023-04-01T11:21:12;93376.59;;;18.32;45.23
24280;BME280;12395;42.808;23.408;2023-04-01T11:23:53;93369.41;;;18.28;46.82
24280;BME280;12395;42.808;23.408;2023-04-01T11:37:33;93412.50;;;17.52;48.36
24280;BME280;12395;42.808;23.408;2023-04-01T11:42:52;93459.28;;;17.31;48.08
24280;BME280;12395;42.808;23.408;2023-04-01T12:05:19;93648.78;;;11.41;100.00
24280;BME280;12395;42.808;23.408;2023-04-01T12:10:33;93623.63;;;10.94;100.00
24280;BME280;12395;42.808;23.408;2023-04-01T12:16:15;93634.66;;;11.03;100.00
24280;BME280;12395;42.808;23.408;2023-04-01T12:18:59;93620.16;;;11.10;100.00
24280;BME280;12395;42.808;23.408;2023-04-01T12:24:36;93607.81;;;11.16;100.00
24280;BME280;12395;42.808;23.408;2023-04-01T12:27:28;93619.94;;;11.28;100.00
24280;BME280;12395;42.808;23.408;2023-04-01T12:30:25;93611.69;;;11.46;100.00
24280;BME280;12395;42.808;23.408;2023-04-01T12:44:42;93620.38;;;11.97;100.00
24280;BME280;12395;42.808;23.408;2023-04-01T12:52:58;93616.16;;;11.79;100.00
24280;BME280;12395;42.808;23.408;2023-04-01T12:55:48;93599.25;;;11.85;100.00
24280;BME280;12395;42.808;23.408;2023-04-01T12:58:55;93605.38;;;12.07;100.00
24280;BME280;12395;42.808;23.408;2023-04-01T13:01:41;93578.28;;;12.05;100.00
24280;BME280;12395;42.808;23.408;2023-04-01T13:07:23;93583.31;;;12.07;100.00
24280;BME280;12395;42.808;23.408;2023-04-01T13:10:13;93555.78;;;12.13;100.00
24280;BME280;12395;42.808;23.408;2023-04-01T13:15:45;93577.56;;;12.63;100.00
24280;BME280;12395;42.808;23.408;2023-04-01T13:18:45;93565.84;;;12.96;100.00
24280;BME280;12395;42.808;23.408;2023-04-01T13:31:43;93546.13;;;13.65;85.68
24280;BME280;12395;42.808;23.408;2023-04-01T13:42:33;93509.00;;;13.96;90.59
24280;BME280;12395;42.808;23.408;2023-04-01T13:45:12;93513.97;;;13.72;88.58
24280;BME280;12395;42.808;23.408;2023-04-01T14:01:21;93494.53;;;13.81;84.93
24280;BME280;12395;42.808;23.408;2023-04-01T14:06:54;93499.63;;;13.83;83.29
24280;BME280;12395;42.808;23.408;2023-04-01T14:20:41;93493.94;;;14.87;77.67
24280;BME280;12395;42.808;23.408;2023-04-01T14:26:10;93486.75;;;14.82;71.91
24280;BME280;12395;42.808;23.408;2023-04-01T14:36:47;93453.06;;;15.36;74.31
24280;BME280;12395;42.808;23.408;2023-04-01T14:50:17;93445.94;;;15.07;72.94
24280;BME280;12395;42.808;23.408;2023-04-01T14:52:57;93441.97;;;14.79;72.73
24280;BME280;12395;42.808;23.408;2023-04-01T14:55:33;93440.88;;;14.80;70.69
24280;BME280;12395;42.808;23.408;2023-04-01T14:58:07;93442.50;;;14.86;72.15
24280;BME280;12395;42.808;23.408;2023-04-01T15:03:29;93443.84;;;14.58;72.98
24280;BME280;12395;42.808;23.408;2023-04-01T15:08:54;93455.31;;;14.49;74.61
24280;BME280;12395;42.808;23.408;2023-04-01T15:11:51;93448.91;;;14.55;75.71
24280;BME280;12395;42.808;23.408;2023-04-01T15:14:28;93451.59;;;14.60;73.53
24280;BME280;12395;42.808;23.408;2023-04-01T15:25:25;93428.66;;;14.69;72.29
24280;BME280;12395;42.808;23.408;2023-04-01T15:31:00;93421.72;;;14.73;78.50
24280;BME280;12395;42.808;23.408;2023-04-01T15:44:55;93429.44;;;14.39;76.08
24280;BME280;12395;42.808;23.408;2023-04-01T15:52:43;93612.66;;;11.95;82.85
24280;BME280;12395;42.808;23.408;2023-04-01T15:55:26;93609.59;;;10.94;89.56
24280;BME280;12395;42.808;23.408;2023-04-01T16:03:51;93667.00;;;9.46;98.47
24280;BME280;12395;42.808;23.408;2023-04-01T16:06:56;93663.34;;;9.23;98.32
24280;BME280;12395;42.808;23.408;2023-04-01T16:15:30;93658.03;;;8.47;100.00
24280;BME280;12395;42.808;23.408;2023-04-01T16:21:36;93679.19;;;8.29;100.00
24280;BME280;12395;42.808;23.408;2023-04-01T16:24:30;93681.50;;;8.19;100.00
24280;BME280;12395;42.808;23.408;2023-04-01T16:27:18;93682.47;;;8.25;100.00
24280;BME280;12395;42.808;23.408;2023-04-01T16:32:44;93678.22;;;8.24;100.00
24280;BME280;12395;42.808;23.408;2023-04-01T16:41:13;93684.38;;;8.36;100.00
24280;BME280;12395;42.808;23.408;2023-04-01T16:43:46;93686.72;;;8.44;100.00
24280;BME280;12395;42.808;23.408;2023-04-01T16:51:16;93693.72;;;8.50;100.00
24280;BME280;12395;42.808;23.408;2023-04-01T17:01:36;93686.56;;;8.69;100.00
24280;BME280;12395;42.808;23.408;2023-04-01T17:04:48;93709.88;;;8.72;100.00
24280;BME280;12395;42.808;23.408;2023-04-01T17:13:35;93747.75;;;8.47;100.00
24280;BME280;12395;42.808;23.408;2023-04-01T17:16:30;93757.72;;;8.45;100.00
24280;BME280;12395;42.808;23.408;2023-04-01T17:30:47;93788.63;;;8.27;100.00
24280;BME280;12395;42.808;23.408;2023-04-01T17:33:35;93794.88;;;8.08;100.00
24280;BME280;12395;42.808;23.408;2023-04-01T17:37:00;93790.16;;;7.92;100.00
24280;BME280;12395;42.808;23.408;2023-04-01T17:42:26;93780.78;;;7.77;100.00
24280;BME280;12395;42.808;23.408;2023-04-01T17:45:17;93786.22;;;7.83;100.00
24280;BME280;12395;42.808;23.408;2023-04-01T17:47:55;93786.47;;;7.74;100.00
24280;BME280;12395;42.808;23.408;2023-04-01T17:56:23;93820.59;;;7.45;100.00
24280;BME280;12395;42.808;23.408;2023-04-01T18:07:45;93824.91;;;7.08;100.00
24280;BME280;12395;42.808;23.408;2023-04-01T18:10:35;93820.47;;;7.02;100.00
24280;BME280;12395;42.808;23.408;2023-04-01T18:13:26;93825.75;;;7.02;100.00
24280;BME280;12395;42.808;23.408;2023-04-01T18:19:14;93833.50;;;6.97;100.00
24280;BME280;12395;42.808;23.408;2023-04-01T18:21:47;93845.03;;;6.96;100.00
24280;BME280;12395;42.808;23.408;2023-04-01T18:24:34;93818.50;;;6.91;100.00
24280;BME280;12395;42.808;23.408;2023-04-01T18:29:46;93857.31;;;7.09;100.00
24280;BME280;12395;42.808;23.408;2023-04-01T18:32:35;93862.94;;;7.12;100.00
24280;BME280;12395;42.808;23.408;2023-04-01T18:40:54;93886.34;;;7.33;100.00
24280;BME280;12395;42.808;23.408;2023-04-01T18:46:40;93900.88;;;7.42;100.00
24280;BME280;12395;42.808;23.408;2023-04-01T18:49:17;93894.41;;;7.38;100.00
24280;BME280;12395;42.808;23.408;2023-04-01T18:51:50;93903.03;;;7.52;100.00
24280;BME280;12395;42.808;23.408;2023-04-01T18:54:32;93900.78;;;7.55;100.00
24280;BME280;12395;42.808;23.408;2023-04-01T18:57:04;93908.88;;;7.60;100.00
24280;BME280;12395;42.808;23.408;2023-04-01T18:59:40;93900.75;;;7.62;100.00
24280;BME280;12395;42.808;23.408;2023-04-01T19:18:32;93923.13;;;7.46;100.00
24280;BME280;12395;42.808;23.408;2023-04-01T19:21:14;93924.75;;;7.47;100.00
24280;BME280;12395;42.808;23.408;2023-04-01T19:23:57;93923.13;;;7.46;100.00
24280;BME280;12395;42.808;23.408;2023-04-01T19:37:39;93939.75;;;7.47;100.00
24280;BME280;12395;42.808;23.408;2023-04-01T19:40:36;93943.81;;;7.49;100.00
24280;BME280;12395;42.808;23.408;2023-04-01T19:45:40;93953.16;;;7.45;100.00
24280;BME280;12395;42.808;23.408;2023-04-01T19:50:49;93950.34;;;7.40;100.00
24280;BME280;12395;42.808;23.408;2023-04-01T19:53:27;93953.38;;;7.44;100.00
24280;BME280;12395;42.808;23.408;2023-04-01T19:56:15;93943.03;;;7.42;100.00
24280;BME280;12395;42.808;23.408;2023-04-01T20:01:35;93963.66;;;7.52;100.00
24280;BME280;12395;42.808;23.408;2023-04-01T20:04:08;93944.69;;;7.37;100.00
24280;BME280;12395;42.808;23.408;2023-04-01T20:06:57;93964.50;;;7.46;100.00
24280;BME280;12395;42.808;23.408;2023-04-01T20:17:51;93958.09;;;7.35;100.00
24280;BME280;12395;42.808;23.408;2023-04-01T20:20:23;93971.59;;;7.45;100.00
24280;BME280;12395;42.808;23.408;2023-04-01T20:22:55;93977.06;;;7.50;100.00
24280;BME280;12395;42.808;23.408;2023-04-01T20:25:26;93970.56;;;7.46;100.00
24280;BME280;12395;42.808;23.408;2023-04-01T20:33:43;93970.56;;;7.46;100.00
24280;BME280;12395;42.808;23.408;2023-04-01T20:36:22;93968.97;;;7.45;100.00
24280;BME280;12395;42.808;23.408;2023-04-01T20:41:56;93975.84;;;7.46;100.00
24280;BME280;12395;42.808;23.408;2023-04-01T20:44:37;93990.88;;;7.46;100.00
24280;BME280;12395;42.808;23.408;2023-04-01T20:52:41;93983.56;;;7.48;100.00
24280;BME280;12395;42.808;23.408;2023-04-01T21:00:52;93972.50;;;7.64;100.00
24280;BME280;12395;42.808;23.408;2023-04-01T21:06:33;93992.97;;;7.68;100.00
24280;BME280;12395;42.808;23.408;2023-04-01T21:09:06;94001.97;;;7.54;100.00
24280;BME280;12395;42.808;23.408;2023-04-01T21:17:10;94004.53;;;7.67;100.00
24280;BME280;12395;42.808;23.408;2023-04-01T21:19:54;94004.50;;;7.74;100.00
24280;BME280;12395;42.808;23.408;2023-04-01T21:41:57;94009.28;;;7.84;100.00
24280;BME280;12395;42.808;23.408;2023-04-01T21:50:14;93998.53;;;7.54;100.00
24280;BME280;12395;42.808;23.408;2023-04-01T22:04:04;93991.84;;;7.07;100.00
24280;BME280;12395;42.808;23.408;2023-04-01T22:06:42;93970.03;;;6.80;100.00
24280;BME280;12395;42.808;23.408;2023-04-01T22:09:33;93995.75;;;6.85;100.00
24280;BME280;12395;42.808;23.408;2023-04-01T22:12:17;93993.53;;;6.82;100.00
24280;BME280;12395;42.808;23.408;2023-04-01T22:17:23;93984.25;;;6.66;100.00
24280;BME280;12395;42.808;23.408;2023-04-01T22:30:24;94001.47;;;6.56;100.00
24280;BME280;12395;42.808;23.408;2023-04-01T22:32:55;94007.56;;;6.56;100.00
24280;BME280;12395;42.808;23.408;2023-04-01T22:41:01;94002.72;;;6.27;100.00
24280;BME280;12395;42.808;23.408;2023-04-01T22:43:37;93997.06;;;6.17;100.00
24280;BME280;12395;42.808;23.408;2023-04-01T22:48:43;94000.91;;;6.28;100.00
24280;BME280;12395;42.808;23.408;2023-04-01T22:51:22;93976.22;;;6.29;100.00
24280;BME280;12395;42.808;23.408;2023-04-01T22:56:28;93978.81;;;6.42;100.00
24280;BME280;12395;42.808;23.408;2023-04-01T23:01:39;93999.84;;;6.42;100.00
24280;BME280;12395;42.808;23.408;2023-04-01T23:04:05;94006.53;;;6.51;100.00
24280;BME280;12395;42.808;23.408;2023-04-01T23:06:39;94006.97;;;6.54;100.00
24280;BME280;12395;42.808;23.408;2023-04-01T23:09:11;94008.16;;;6.58;100.00
24280;BME280;12395;42.808;23.408;2023-04-01T23:11:51;94007.94;;;6.60;100.00
24280;BME280;12395;42.808;23.408;2023-04-01T23:17:01;94015.03;;;6.53;100.00
24280;BME280;12395;42.808;23.408;2023-04-01T23:19:49;94019.09;;;6.49;100.00
24280;BME280;12395;42.808;23.408;2023-04-01T23:25:25;94022.16;;;6.39;100.00
24280;BME280;12395;42.808;23.408;2023-04-01T23:35:53;94013.44;;;6.19;100.00
24280;BME280;12395;42.808;23.408;2023-04-01T23:38:23;94015.66;;;6.15;100.00
24280;BME280;12395;42.808;23.408;2023-04-01T23:40:51;93985.94;;;6.08;100.00